createdAt,value
2023-09-06T00:00:47.260Z,2.80
2023-09-06T00:03:14.533Z,2.50
2023-09-06T00:05:44.547Z,2.40
2023-09-06T00:08:17.427Z,2.90
2023-09-06T00:10:44.764Z,2.67
2023-09-06T00:13:13.434Z,2.58
2023-09-06T00:15:40.522Z,2.78
2023-09-06T00:18:07.934Z,2.38
2023-09-06T00:20:36.052Z,2.35
2023-09-06T00:23:05.773Z,2.80
2023-09-06T00:25:33.564Z,2.47
2023-09-06T00:28:02.168Z,2.65
2023-09-06T00:30:29.432Z,2.78
2023-09-06T00:32:56.430Z,2.70
2023-09-06T00:35:26.719Z,2.50
2023-09-06T00:37:54.594Z,3.17
2023-09-06T00:40:25.036Z,2.70
2023-09-06T00:42:53.857Z,2.90
2023-09-06T00:45:24.361Z,2.90
2023-09-06T00:47:52.314Z,3.13
2023-09-06T00:50:19.515Z,2.53
2023-09-06T00:52:47.816Z,3.00
2023-09-06T00:55:14.881Z,2.78
2023-09-06T00:57:42.738Z,2.85
2023-09-06T01:00:18.314Z,2.72
2023-09-06T01:02:46.059Z,2.40
2023-09-06T01:05:13.991Z,2.63
2023-09-06T01:07:45.115Z,2.63
2023-09-06T01:10:12.085Z,2.58
2023-09-06T01:12:39.179Z,2.70
2023-09-06T01:15:06.509Z,2.63
2023-09-06T01:17:37.996Z,3.00
2023-09-06T01:20:20.252Z,2.63
2023-09-06T01:23:04.262Z,3.10
2023-09-06T01:25:31.751Z,3.28
2023-09-06T01:27:58.975Z,3.15
2023-09-06T01:30:32.072Z,2.80
2023-09-06T01:32:58.903Z,2.50
2023-09-06T01:35:25.687Z,3.22
2023-09-06T01:37:52.515Z,2.95
2023-09-06T01:40:19.439Z,2.97
2023-09-06T01:42:46.797Z,2.95
2023-09-06T01:45:18.618Z,3.45
2023-09-06T01:47:48.145Z,3.65
2023-09-06T01:50:20.597Z,3.70
2023-09-06T01:52:48.292Z,3.47
2023-09-06T01:55:15.245Z,3.83
2023-09-06T01:57:42.117Z,3.67
2023-09-06T02:00:27.783Z,4.15
2023-09-06T02:02:56.197Z,3.40
2023-09-06T02:05:23.536Z,3.88
2023-09-06T02:07:50.897Z,3.83
2023-09-06T02:10:18.380Z,3.50
2023-09-06T02:12:45.938Z,3.75
2023-09-06T02:15:16.252Z,3.63
2023-09-06T02:20:25.404Z,4.18
2023-09-06T02:22:57.744Z,3.85
2023-09-06T02:25:32.467Z,4.18
2023-09-06T02:28:06.342Z,3.70
2023-09-06T02:30:34.155Z,4.18
2023-09-06T02:33:01.818Z,4.18
2023-09-06T02:35:28.724Z,4.57
2023-09-06T02:37:55.441Z,3.97
2023-09-06T02:40:22.542Z,4.13
2023-09-06T02:42:50.262Z,4.03
2023-09-06T02:45:17.097Z,4.68
2023-09-06T02:47:51.579Z,4.35
2023-09-06T02:50:24.677Z,4.50
2023-09-06T02:52:54.119Z,4.60
2023-09-06T02:55:21.248Z,4.17
2023-09-06T02:57:50.663Z,4.20
2023-09-06T03:00:27.222Z,4.38
2023-09-06T03:03:07.944Z,3.80
2023-09-06T03:05:42.413Z,4.32
2023-09-06T03:08:10.873Z,4.10
2023-09-06T03:10:39.696Z,4.10
2023-09-06T03:13:06.816Z,4.43
2023-09-06T03:15:35.519Z,4.82
2023-09-06T03:18:03.614Z,4.80
2023-09-06T03:20:46.198Z,4.43
2023-09-06T03:23:21.072Z,4.38
2023-09-06T03:25:59.464Z,4.60
2023-09-06T03:28:27.666Z,5.00
2023-09-06T03:31:00.156Z,4.47
2023-09-06T03:33:28.832Z,4.63
2023-09-06T03:35:55.629Z,4.38
2023-09-06T03:38:26.794Z,4.50
2023-09-06T03:40:54.212Z,4.80
2023-09-06T03:43:21.192Z,5.18
2023-09-06T03:45:53.238Z,4.10
2023-09-06T03:48:24.990Z,4.30
2023-09-06T03:50:57.061Z,4.78
2023-09-06T03:53:27.747Z,3.83
2023-09-06T03:55:59.725Z,4.20
2023-09-06T03:58:27.314Z,4.35
2023-09-06T04:00:54.953Z,4.28
2023-09-06T04:03:23.951Z,4.32
2023-09-06T04:05:52.462Z,4.68
2023-09-06T04:08:19.784Z,4.85
2023-09-06T04:10:47.420Z,4.60
2023-09-06T04:13:15.338Z,4.05
2023-09-06T04:15:44.073Z,4.30
2023-09-06T04:18:12.353Z,4.43
2023-09-06T04:20:40.819Z,4.68
2023-09-06T04:23:09.509Z,4.47
2023-09-06T04:25:44.426Z,4.80
2023-09-06T04:28:13.686Z,4.60
2023-09-06T04:30:42.138Z,4.15
2023-09-06T04:33:14.046Z,4.45
2023-09-06T04:35:45.101Z,4.90
2023-09-06T04:38:13.375Z,5.32
2023-09-06T04:40:40.646Z,5.22
2023-09-06T04:43:08.929Z,4.82
2023-09-06T04:45:38.814Z,5.30
2023-09-06T04:48:10.383Z,6.10
2023-09-06T04:50:41.490Z,5.65
2023-09-06T04:53:09.457Z,5.68
2023-09-06T04:55:37.406Z,5.38
2023-09-06T04:58:05.398Z,6.45
2023-09-06T05:00:36.449Z,5.78
2023-09-06T05:03:04.571Z,5.47
2023-09-06T05:05:31.702Z,5.32
2023-09-06T05:07:58.493Z,5.53
2023-09-06T05:10:25.914Z,5.88
2023-09-06T05:12:52.744Z,5.90
2023-09-06T05:15:19.545Z,5.75
2023-09-06T05:17:46.361Z,6.18
2023-09-06T05:20:36.543Z,6.10
2023-09-06T05:23:08.573Z,6.15
2023-09-06T05:25:36.082Z,5.95
2023-09-06T05:28:09.912Z,5.88
2023-09-06T05:30:47.807Z,5.45
2023-09-06T05:33:16.135Z,5.95
2023-09-06T05:35:44.410Z,5.93
2023-09-06T05:38:11.169Z,5.93
2023-09-06T05:40:42.225Z,5.75
2023-09-06T05:43:09.501Z,6.43
2023-09-06T05:45:36.304Z,6.00
2023-09-06T05:48:03.372Z,6.07
2023-09-06T05:50:30.284Z,6.32
2023-09-06T05:52:57.031Z,6.60
2023-09-06T05:55:23.901Z,6.07
2023-09-06T05:57:50.674Z,6.47
2023-09-06T06:00:18.516Z,5.30
2023-09-06T06:02:49.736Z,6.68
2023-09-06T06:05:19.566Z,6.30
2023-09-06T06:07:47.189Z,6.32
2023-09-06T06:10:14.369Z,6.40
2023-09-06T06:12:42.329Z,6.22
2023-09-06T06:15:10.566Z,6.63
2023-09-06T06:17:37.963Z,6.30
2023-09-06T06:20:08.838Z,6.70
2023-09-06T06:22:39.367Z,6.30
2023-09-06T06:25:08.241Z,6.60
2023-09-06T06:27:35.734Z,7.15
2023-09-06T06:30:02.800Z,7.20
2023-09-06T06:32:29.717Z,7.20
2023-09-06T06:34:57.667Z,7.00
2023-09-06T06:37:24.373Z,7.57
2023-09-06T06:39:51.215Z,7.13
2023-09-06T06:42:18.314Z,7.47
2023-09-06T06:44:48.615Z,6.80
2023-09-06T06:47:15.588Z,7.07
2023-09-06T06:49:42.474Z,7.68
2023-09-06T06:52:09.332Z,7.68
2023-09-06T06:54:36.115Z,7.35
2023-09-06T06:57:02.987Z,6.93
2023-09-06T06:59:29.815Z,7.72
2023-09-06T07:01:56.614Z,7.70
2023-09-06T07:04:23.451Z,6.95
2023-09-06T07:06:50.225Z,7.22
2023-09-06T07:09:16.958Z,7.35
2023-09-06T07:11:44.214Z,7.05
2023-09-06T07:14:11.030Z,6.75
2023-09-06T07:16:38.035Z,7.07
2023-09-06T07:19:05.377Z,7.50
2023-09-06T07:21:32.456Z,7.32
2023-09-06T07:23:59.229Z,7.40
2023-09-06T07:26:26.090Z,7.50
2023-09-06T07:28:52.983Z,6.72
2023-09-06T07:31:19.875Z,6.28
2023-09-06T07:33:46.705Z,7.43
2023-09-06T07:36:14.676Z,6.65
2023-09-06T07:38:41.526Z,7.22
2023-09-06T07:41:09.452Z,6.65
2023-09-06T07:43:38.093Z,6.78
2023-09-06T07:46:09.240Z,6.88
2023-09-06T07:48:37.566Z,7.10
2023-09-06T07:51:05.416Z,6.45
2023-09-06T07:53:33.249Z,6.70
2023-09-06T07:56:00.127Z,5.97
2023-09-06T07:58:30.444Z,6.30
2023-09-06T08:01:14.902Z,6.28
2023-09-06T08:03:44.548Z,6.20
2023-09-06T08:06:11.465Z,5.85
2023-09-06T08:08:39.086Z,6.32
2023-09-06T08:11:07.176Z,6.43
2023-09-06T08:13:34.314Z,6.07
2023-09-06T08:16:01.465Z,5.65
2023-09-06T08:18:30.067Z,5.50
2023-09-06T08:20:57.457Z,5.43
2023-09-06T08:23:24.284Z,6.05
2023-09-06T08:25:51.133Z,5.15
2023-09-06T08:28:19.532Z,5.50
2023-09-06T08:30:48.282Z,5.82
2023-09-06T08:33:15.868Z,5.15
2023-09-06T08:35:43.210Z,5.65
2023-09-06T08:38:13.489Z,5.30
2023-09-06T08:40:41.208Z,5.30
2023-09-06T08:43:11.122Z,5.13
2023-09-06T08:45:39.542Z,5.25
2023-09-06T08:48:06.922Z,5.55
2023-09-06T08:50:37.102Z,4.75
2023-09-06T08:53:05.112Z,4.72
2023-09-06T08:55:32.340Z,4.78
2023-09-06T08:58:00.395Z,4.60
2023-09-06T09:00:27.269Z,4.82
2023-09-06T09:02:54.316Z,5.20
2023-09-06T09:05:22.899Z,4.72
2023-09-06T09:07:58.043Z,4.05
2023-09-06T09:10:27.629Z,4.93
2023-09-06T09:12:57.054Z,4.55
2023-09-06T09:15:27.157Z,4.20
2023-09-06T09:18:00.853Z,4.75
2023-09-06T09:20:29.107Z,4.38
2023-09-06T09:23:03.555Z,4.88
2023-09-06T09:25:31.101Z,4.47
2023-09-06T09:27:59.642Z,4.55
2023-09-06T09:30:29.873Z,4.20
2023-09-06T09:35:33.858Z,4.30
2023-09-06T09:38:02.464Z,4.32
2023-09-06T09:43:06.187Z,3.75
2023-09-06T09:45:44.774Z,3.63
2023-09-06T09:48:12.255Z,3.95
2023-09-06T09:50:42.454Z,3.70
2023-09-06T09:53:20.728Z,3.50
2023-09-06T09:55:49.687Z,3.10
2023-09-06T09:58:20.776Z,3.58
2023-09-06T10:00:51.391Z,3.33
2023-09-06T10:03:22.454Z,2.72
2023-09-06T10:05:50.034Z,2.83
2023-09-06T10:08:19.326Z,2.63
2023-09-06T10:10:46.336Z,2.63
2023-09-06T10:13:16.037Z,3.03
2023-09-06T10:15:44.676Z,2.72
2023-09-06T10:18:12.391Z,3.08
2023-09-06T10:20:40.530Z,2.47
2023-09-06T10:23:09.082Z,3.28
2023-09-06T10:25:41.594Z,2.70
2023-09-06T10:28:09.599Z,3.30
2023-09-06T10:30:53.108Z,2.85
2023-09-06T10:33:35.283Z,2.55
2023-09-06T10:36:10.007Z,2.92
2023-09-06T10:38:52.557Z,2.92
2023-09-06T10:41:23.486Z,2.92
2023-09-06T10:43:50.224Z,2.95
2023-09-06T10:46:19.834Z,2.83
2023-09-06T10:49:22.277Z,2.60
2023-09-06T10:52:15.936Z,2.60
2023-09-06T10:54:45.076Z,2.47
2023-09-06T10:57:16.389Z,2.30
2023-09-06T10:59:57.271Z,2.60
2023-09-06T11:02:24.116Z,2.75
2023-09-06T11:05:09.791Z,2.30
2023-09-06T11:07:50.054Z,2.85
2023-09-06T11:10:25.222Z,2.55
2023-09-06T11:12:55.386Z,2.72
2023-09-06T11:15:23.691Z,2.35
2023-09-06T11:17:53.417Z,2.50
2023-09-06T11:22:52.774Z,2.65
2023-09-06T11:25:24.142Z,2.67
2023-09-06T11:27:52.147Z,2.50
2023-09-06T11:30:22.512Z,2.65
2023-09-06T11:32:50.772Z,2.70
2023-09-06T11:35:20.894Z,2.47
2023-09-06T11:37:51.947Z,2.42
2023-09-06T11:40:21.898Z,2.42
2023-09-06T11:42:53.268Z,2.65
2023-09-06T11:45:25.918Z,2.55
2023-09-06T11:47:55.064Z,2.72
2023-09-06T11:50:25.237Z,2.47
2023-09-06T11:52:58.576Z,2.38
2023-09-06T11:55:28.011Z,2.95
2023-09-06T11:57:58.583Z,2.80
2023-09-06T12:00:39.547Z,2.58
2023-09-06T12:03:10.079Z,2.60
2023-09-06T12:05:57.552Z,2.67
2023-09-06T12:08:25.057Z,2.55
2023-09-06T12:11:07.005Z,2.60
2023-09-06T12:13:36.483Z,2.97
2023-09-06T12:16:05.662Z,2.60
2023-09-06T12:18:33.439Z,2.80
2023-09-06T12:21:00.789Z,2.60
2023-09-06T12:23:30.786Z,2.60
2023-09-06T12:25:59.140Z,2.70
2023-09-06T12:28:27.787Z,2.83
2023-09-06T12:30:57.176Z,3.00
2023-09-06T12:33:24.300Z,2.65
2023-09-06T12:36:00.533Z,2.35
2023-09-06T12:38:28.596Z,2.65
2023-09-06T12:40:57.358Z,2.22
2023-09-06T12:43:25.739Z,2.60
2023-09-06T12:45:54.842Z,2.40
2023-09-06T12:48:22.967Z,2.60
2023-09-06T12:50:55.628Z,2.40
2023-09-06T12:53:24.496Z,2.55
2023-09-06T12:55:51.377Z,2.60
2023-09-06T12:58:18.924Z,2.40
2023-09-06T13:00:46.107Z,2.70
2023-09-06T13:03:13.154Z,2.70
2023-09-06T13:05:43.615Z,2.40
2023-09-06T13:08:11.224Z,2.47
2023-09-06T13:10:40.405Z,2.60
2023-09-06T13:13:07.607Z,2.47
2023-09-06T13:15:34.569Z,2.85
2023-09-06T13:18:01.694Z,2.60
2023-09-06T13:20:28.856Z,2.85
2023-09-06T13:22:55.801Z,2.70
2023-09-06T13:25:22.671Z,2.63
2023-09-06T13:27:49.439Z,2.30
2023-09-06T13:30:17.264Z,2.58
2023-09-06T13:32:44.241Z,2.70
2023-09-06T13:35:11.151Z,2.45
2023-09-06T13:37:37.999Z,2.70
2023-09-06T13:40:08.565Z,2.65
2023-09-06T13:42:35.653Z,2.63
2023-09-06T13:45:02.824Z,2.67
2023-09-06T13:47:29.628Z,2.65
2023-09-06T13:49:58.333Z,2.90
2023-09-06T13:52:25.080Z,2.40
2023-09-06T13:54:51.950Z,2.45
2023-09-06T13:57:18.703Z,2.78
2023-09-06T13:59:45.923Z,2.50
2023-09-06T14:02:12.844Z,2.70
2023-09-06T14:04:39.841Z,2.72
2023-09-06T14:07:06.876Z,2.70
2023-09-06T14:09:33.687Z,2.60
2023-09-06T14:12:00.495Z,2.80
2023-09-06T14:14:28.103Z,2.70
2023-09-06T14:16:55.552Z,2.85
2023-09-06T14:19:22.355Z,2.95
2023-09-06T14:21:49.187Z,2.80
2023-09-06T14:24:16.711Z,2.80
2023-09-06T14:26:44.391Z,2.80
2023-09-06T14:29:15.062Z,2.60
2023-09-06T14:31:41.988Z,3.10
2023-09-06T14:34:08.927Z,2.60
2023-09-06T14:36:36.190Z,2.75
2023-09-06T14:39:05.737Z,2.80
2023-09-06T14:41:35.024Z,3.00
2023-09-06T14:44:02.327Z,2.78
2023-09-06T14:46:29.308Z,2.90
2023-09-06T14:48:56.350Z,2.85
2023-09-06T14:51:25.319Z,2.80
2023-09-06T14:53:52.264Z,3.20
2023-09-06T14:56:19.515Z,3.83
2023-09-06T14:58:46.304Z,3.40
2023-09-06T15:01:13.153Z,3.17
2023-09-06T15:03:40.204Z,3.10
2023-09-06T15:06:08.277Z,3.33
2023-09-06T15:08:35.425Z,3.50
2023-09-06T15:11:02.634Z,3.08
2023-09-06T15:13:29.506Z,3.30
2023-09-06T15:15:56.704Z,3.50
2023-09-06T15:18:24.653Z,3.85
2023-09-06T15:20:52.188Z,3.40
2023-09-06T15:23:19.382Z,3.40
2023-09-06T15:25:46.383Z,3.10
2023-09-06T15:28:13.423Z,3.50
2023-09-06T15:30:40.628Z,3.50
2023-09-06T15:33:07.679Z,3.40
2023-09-06T15:35:34.604Z,3.35
2023-09-06T15:38:07.829Z,2.97
2023-09-06T15:40:35.383Z,3.50
2023-09-06T15:43:03.516Z,3.60
2023-09-06T15:45:30.952Z,3.15
2023-09-06T15:48:00.061Z,3.60
2023-09-06T15:50:29.414Z,3.45
2023-09-06T15:55:24.353Z,3.42
2023-09-06T15:57:52.071Z,3.33
2023-09-06T16:00:31.564Z,3.30
2023-09-06T16:03:00.224Z,3.42
2023-09-06T16:05:27.746Z,2.75
2023-09-06T16:07:54.763Z,3.58
2023-09-06T16:10:21.840Z,3.60
2023-09-06T16:12:50.001Z,3.50
2023-09-06T16:15:25.797Z,3.00
2023-09-06T16:17:53.149Z,3.10
2023-09-06T16:20:20.479Z,3.55
2023-09-06T16:22:47.240Z,3.42
2023-09-06T16:25:14.141Z,3.13
2023-09-06T16:27:41.085Z,3.30
2023-09-06T16:30:09.609Z,3.20
2023-09-06T16:32:36.876Z,3.03
2023-09-06T16:35:08.668Z,3.45
2023-09-06T16:37:39.706Z,3.28
2023-09-06T16:40:11.765Z,3.03
2023-09-06T16:42:39.710Z,3.10
2023-09-06T16:45:07.698Z,2.95
2023-09-06T16:47:34.837Z,2.83
2023-09-06T16:50:02.313Z,3.00
2023-09-06T16:52:29.222Z,3.00
2023-09-06T16:54:57.140Z,2.80
2023-09-06T16:57:25.932Z,2.70
2023-09-06T16:59:52.980Z,3.13
2023-09-06T17:02:21.317Z,3.00
2023-09-06T17:04:48.726Z,3.25
2023-09-06T17:07:15.588Z,2.80
2023-09-06T17:09:42.374Z,2.55
2023-09-06T17:12:09.397Z,2.97
2023-09-06T17:14:37.037Z,2.83
2023-09-06T17:17:04.748Z,2.90
2023-09-06T17:19:32.111Z,2.92
2023-09-06T17:21:58.990Z,3.10
2023-09-06T17:24:26.285Z,2.95
2023-09-06T17:26:54.775Z,2.95
2023-09-06T17:29:21.687Z,3.53
2023-09-06T17:31:48.607Z,3.85
2023-09-06T17:34:15.489Z,3.40
2023-09-06T17:36:42.672Z,3.25
2023-09-06T17:39:10.769Z,3.70
2023-09-06T17:41:39.081Z,3.20
2023-09-06T17:44:07.709Z,3.20
2023-09-06T17:46:39.099Z,3.28
2023-09-06T17:49:10.015Z,3.22
2023-09-06T17:51:37.819Z,3.35
2023-09-06T17:54:04.900Z,3.25
2023-09-06T17:56:33.089Z,3.65
2023-09-06T17:59:00.043Z,3.80
2023-09-06T18:01:27.290Z,3.78
2023-09-06T18:03:58.889Z,3.63
2023-09-06T18:06:27.521Z,3.95
2023-09-06T18:09:05.735Z,3.53
2023-09-06T18:11:32.666Z,3.55
2023-09-06T18:13:59.526Z,3.72
2023-09-06T18:16:26.586Z,3.70
2023-09-06T18:18:53.594Z,3.95
2023-09-06T18:21:20.414Z,3.80
2023-09-06T18:23:49.373Z,3.88
2023-09-06T18:26:16.424Z,3.70
2023-09-06T18:28:43.406Z,4.20
2023-09-06T18:31:10.450Z,3.50
2023-09-06T18:33:37.978Z,3.75
2023-09-06T18:36:09.839Z,3.83
2023-09-06T18:38:38.272Z,4.03
2023-09-06T18:41:10.999Z,3.80
2023-09-06T18:43:41.617Z,4.20
2023-09-06T18:46:09.565Z,4.05
2023-09-06T18:48:38.368Z,3.78
2023-09-06T18:51:09.208Z,4.20
2023-09-06T18:53:37.485Z,4.50
2023-09-06T18:56:05.221Z,3.90
2023-09-06T18:58:34.187Z,4.20
2023-09-06T19:01:01.289Z,4.20
2023-09-06T19:03:28.948Z,3.97
2023-09-06T19:05:55.904Z,4.43
2023-09-06T19:08:23.003Z,3.90
2023-09-06T19:10:49.912Z,4.35
2023-09-06T19:13:16.858Z,4.40
2023-09-06T19:15:48.354Z,4.10
2023-09-06T19:18:16.535Z,4.15
2023-09-06T19:20:44.829Z,3.90
2023-09-06T19:23:17.635Z,4.30
2023-09-06T19:25:56.068Z,4.10
2023-09-06T19:28:24.434Z,4.40
2023-09-06T19:30:56.582Z,4.15
2023-09-06T19:33:23.861Z,4.50
2023-09-06T19:35:50.755Z,4.45
2023-09-06T19:38:21.441Z,4.70
2023-09-06T19:40:50.795Z,4.63
2023-09-06T19:43:17.682Z,4.40
2023-09-06T19:45:46.894Z,4.82
2023-09-06T19:48:14.056Z,4.57
2023-09-06T19:50:40.843Z,5.72
2023-09-06T19:53:07.815Z,5.00
2023-09-06T19:55:37.499Z,5.20
2023-09-06T19:58:04.747Z,5.07
2023-09-06T20:00:31.624Z,5.15
2023-09-06T20:02:58.645Z,5.05
2023-09-06T20:05:25.874Z,5.00
2023-09-06T20:07:54.627Z,5.18
2023-09-06T20:10:21.816Z,5.55
2023-09-06T20:12:48.576Z,4.85
2023-09-06T20:15:16.318Z,5.13
2023-09-06T20:17:43.541Z,4.90
2023-09-06T20:20:10.946Z,5.00
2023-09-06T20:22:37.813Z,5.10
2023-09-06T20:25:06.362Z,5.05
2023-09-06T20:27:33.154Z,4.80
2023-09-06T20:30:00.027Z,5.18
2023-09-06T20:32:26.934Z,4.88
2023-09-06T20:34:53.710Z,5.15
2023-09-06T20:37:20.560Z,5.38
2023-09-06T20:39:47.329Z,5.20
2023-09-06T20:42:14.105Z,5.57
2023-09-06T20:44:40.911Z,6.03
2023-09-06T20:47:07.747Z,6.53
2023-09-06T20:49:34.530Z,6.70
2023-09-06T20:52:01.408Z,6.78
2023-09-06T20:54:28.201Z,6.25
2023-09-06T20:56:55.010Z,6.30
2023-09-06T20:59:21.865Z,5.97
2023-09-06T21:01:48.716Z,5.70
2023-09-06T21:04:15.614Z,5.72
2023-09-06T21:06:42.427Z,6.00
2023-09-06T21:09:11.555Z,5.85
2023-09-06T21:11:39.087Z,6.50
2023-09-06T21:14:05.986Z,4.80
2023-09-06T21:16:32.779Z,5.15
2023-09-06T21:18:59.706Z,5.80
2023-09-06T21:21:27.226Z,5.72
2023-09-06T21:23:54.068Z,5.70
2023-09-06T21:26:20.921Z,5.40
2023-09-06T21:28:48.039Z,5.35
2023-09-06T21:31:14.851Z,4.75
2023-09-06T21:33:42.024Z,5.00
2023-09-06T21:36:08.877Z,5.47
2023-09-06T21:38:36.794Z,5.00
2023-09-06T21:41:03.957Z,4.28
2023-09-06T21:43:30.869Z,4.47
2023-09-06T21:45:57.742Z,4.88
2023-09-06T21:48:25.401Z,4.68
2023-09-06T21:51:07.398Z,4.82
2023-09-06T21:53:34.420Z,4.55
2023-09-06T21:56:01.160Z,5.15
2023-09-06T21:58:28.002Z,4.88
2023-09-06T22:00:57.357Z,4.43
2023-09-06T22:03:24.367Z,5.13
2023-09-06T22:05:51.217Z,4.50
2023-09-06T22:08:18.312Z,5.45
2023-09-06T22:10:45.209Z,4.63
2023-09-06T22:13:12.822Z,4.72
2023-09-06T22:15:39.742Z,5.07
2023-09-06T22:18:07.703Z,4.88
2023-09-06T22:20:39.238Z,5.05
2023-09-06T22:23:06.715Z,5.25
2023-09-06T22:25:33.931Z,4.55
2023-09-06T22:28:07.868Z,4.55
2023-09-06T22:30:39.446Z,4.75
2023-09-06T22:33:06.248Z,4.72
2023-09-06T22:35:33.286Z,4.80
2023-09-06T22:38:00.298Z,4.82
2023-09-06T22:40:27.176Z,5.20
2023-09-06T22:42:54.080Z,4.50
2023-09-06T22:45:24.922Z,5.07
2023-09-06T22:47:51.677Z,4.75
2023-09-06T22:50:18.628Z,4.97
2023-09-06T22:52:45.549Z,5.60
2023-09-06T22:55:12.692Z,4.88
2023-09-06T22:57:39.538Z,4.63
2023-09-06T23:00:08.782Z,5.03
2023-09-06T23:02:35.855Z,4.78
2023-09-06T23:05:02.738Z,5.28
2023-09-06T23:07:29.540Z,4.82
2023-09-06T23:09:56.482Z,5.20
2023-09-06T23:12:23.374Z,4.63
2023-09-06T23:14:50.360Z,4.68
2023-09-06T23:17:22.831Z,5.05
2023-09-06T23:19:54.082Z,5.10
2023-09-06T23:22:23.645Z,4.63
2023-09-06T23:24:53.110Z,5.00
2023-09-06T23:27:21.362Z,5.32
2023-09-06T23:29:56.954Z,4.85
2023-09-06T23:32:26.246Z,4.88
2023-09-06T23:34:54.679Z,4.63
2023-09-06T23:37:22.164Z,4.95
2023-09-06T23:39:49.903Z,4.63
2023-09-06T23:42:20.865Z,4.63
2023-09-06T23:44:47.884Z,4.70
2023-09-06T23:47:15.137Z,5.32
2023-09-06T23:49:45.380Z,4.40
2023-09-06T23:54:47.289Z,4.82
2023-09-06T23:57:17.653Z,5.25
2023-09-06T23:59:44.467Z,4.80
